EDT,Max TemperatureF,Mean TemperatureF,Min TemperatureF,Max Dew PointF,MeanDew PointF,Min DewpointF,Max Humidity, Mean Humidity, Min Humidity, Max Sea Level PressureIn, Mean Sea Level PressureIn, Min Sea Level PressureIn, Max VisibilityMiles, Mean VisibilityMiles, Min VisibilityMiles, Max Wind SpeedMPH, Mean Wind SpeedMPH, Max Gust SpeedMPH,PrecipitationIn, CloudCover, Events, WindDirDegrees
2013-6-1,79,70,62,67,63,60,100,82,60,29.86,29.79,29.70,10,10,6,16,11,24,0.19,5,Rain-Thunderstorm,213
2013-6-2,72,63,54,64,56,43,94,75,61,29.98,29.78,29.67,10,10,10,16,9,25,0.00,6,,267
2013-6-3,68,54,43,45,39,37,89,57,36,30.09,30.04,29.99,10,10,10,12,8,20,0.00,1,,342
2013-6-4,73,58,43,49,44,33,93,58,34,30.20,30.16,30.11,10,10,10,9,4,,0.00,0,,48
2013-6-5,73,60,48,49,43,32,86,54,36,30.17,30.09,30.00,10,10,10,10,5,16,0.00,0,,87
2013-6-6,71,63,55,54,48,41,72,61,53,30.00,29.90,29.85,10,10,10,13,7,,0.00,2,,38
2013-6-7,62,56,51,52,50,47,90,78,67,29.92,29.90,29.87,10,10,10,10,7,,0.00,6,,13
2013-6-8,73,64,55,54,52,50,90,70,47,30.08,29.97,29.91,10,10,10,6,2,,0.00,6,,112
2013-6-9,75,64,54,58,55,52,93,69,50,30.11,30.05,29.95,10,9,5,15,5,21,0.00,4,,100
2013-6-10,72,66,60,66,62,58,100,93,78,29.96,29.83,29.74,10,5,1,10,4,,1.39,7,Rain-Thunderstorm,78
2013-6-11,82,72,64,66,63,61,94,77,56,29.90,29.85,29.78,10,8,5,13,7,20,0.00,5,,300
2013-6-12,79,68,59,69,64,57,94,82,66,29.91,29.81,29.65,10,7,2,10,3,,0.06,4,Rain-Thunderstorm,98
2013-6-13,78,70,62,66,60,54,100,71,45,29.93,29.68,29.53,10,6,0,33,11,43,1.77,6,Fog-Rain-Thunderstorm,13
2013-6-14,77,67,53,58,54,50,93,66,40,30.07,30.02,29.94,10,10,10,12,7,,0.00,1,,358
2013-6-15,79,64,48,62,54,48,100,86,50,30.09,30.04,29.94,10,6,0,14,2,21,0.01,1,Fog-Rain,235
2013-6-16,82,69,57,65,62,54,94,78,43,29.90,29.85,29.79,10,8,1,16,8,21,0.35,4,Rain-Thunderstorm,258
2013-6-17,86,69,54,64,58,52,97,66,38,29.93,29.89,29.83,10,10,10,12,4,17,0.00,1,,264
2013-6-18,73,64,55,61,53,41,96,69,39,30.08,29.97,29.88,10,10,6,14,8,16,0.01,2,Rain-Thunderstorm,34
2013-6-19,75,60,48,53,47,39,89,61,42,30.17,30.13,30.07,10,10,10,8,4,,0.00,0,,76
2013-6-20,82,62,44,57,51,45,100,72,38,30.22,30.19,30.15,10,8,0,9,2,,0.00,0,Fog,193
2013-6-21,86,69,54,64,58,52,97,67,38,30.21,30.15,30.06,10,10,6,10,3,,0.02,1,,203
2013-6-22,87,72,61,73,67,58,93,76,65,30.09,30.05,30.00,10,9,7,12,4,18,0.00,3,Thunderstorm,239
2013-6-23,88,77,66,69,66,64,96,70,48,30.08,30.03,29.98,10,9,6,14,6,22,0.00,0,,227
2013-6-24,87,76,64,70,67,62,93,71,53,30.06,30.00,29.93,10,9,5,17,7,25,0.00,1,Rain-Thunderstorm,228
2013-6-25,84,74,66,72,68,63,94,84,67,30.01,29.91,29.83,10,8,2,21,7,31,0.61,4,Rain-Thunderstorm,251
2013-6-26,82,73,64,70,67,63,100,85,62,29.92,29.83,29.75,10,8,2,14,5,26,0.40,4,Rain-Thunderstorm,217
2013-6-27,82,72,64,71,67,64,100,92,69,29.79,29.73,29.63,10,5,0,21,3,25,1.44,6,Fog-Rain-Thunderstorm,29
2013-6-28,78,69,60,67,63,57,100,89,61,29.65,29.59,29.52,10,6,0,17,4,41,1.76,5,Fog-Rain-Thunderstorm,312
2013-6-29,73,66,60,65,62,58,100,90,68,29.74,29.61,29.55,10,7,0,10,2,,0.30,7,Fog-Rain-Thunderstorm,2
2013-6-30,80,69,59,60,58,54,93,69,47,29.94,29.84,29.74,10,10,10,13,6,22,0.00,2,,46